sensor_id;sensor_type;location;lat;lon;timestamp;temperature;humidity
22192;DHT22;11261;52.456;10.850;2022-09-16T00:01:10;12.00;99.90
22192;DHT22;11261;52.456;10.850;2022-09-16T00:03:39;12.00;99.90
22192;DHT22;11261;52.456;10.850;2022-09-16T00:06:17;12.00;99.90
22192;DHT22;11261;52.456;10.850;2022-09-16T00:08:45;12.00;99.90
22192;DHT22;11261;52.456;10.850;2022-09-16T00:11:14;12.00;99.90
22192;DHT22;11261;52.456;10.850;2022-09-16T00:13:44;12.00;99.90
22192;DHT22;11261;52.456;10.850;2022-09-16T00:16:19;11.90;99.90
22192;DHT22;11261;52.456;10.850;2022-09-16T00:18:47;11.90;99.90
22192;DHT22;11261;52.456;10.850;2022-09-16T00:21:16;11.90;99.90
22192;DHT22;11261;52.456;10.850;2022-09-16T00:23:44;11.90;99.90
22192;DHT22;11261;52.456;10.850;2022-09-16T00:26:12;11.90;99.90
22192;DHT22;11261;52.456;10.850;2022-09-16T00:28:40;11.80;99.90
22192;DHT22;11261;52.456;10.850;2022-09-16T00:31:10;11.80;99.90
22192;DHT22;11261;52.456;10.850;2022-09-16T00:33:38;11.80;99.90
22192;DHT22;11261;52.456;10.850;2022-09-16T00:36:07;11.70;99.90
22192;DHT22;11261;52.456;10.850;2022-09-16T00:38:36;11.70;99.90
22192;DHT22;11261;52.456;10.850;2022-09-16T00:41:05;11.70;99.90
22192;DHT22;11261;52.456;10.850;2022-09-16T00:43:48;11.70;99.90
22192;DHT22;11261;52.456;10.850;2022-09-16T00:46:22;11.70;99.90
22192;DHT22;11261;52.456;10.850;2022-09-16T00:48:53;11.70;99.90
22192;DHT22;11261;52.456;10.850;2022-09-16T00:51:22;11.70;99.90
22192;DHT22;11261;52.456;10.850;2022-09-16T00:53:54;11.60;99.90
22192;DHT22;11261;52.456;10.850;2022-09-16T00:56:25;11.60;99.90
22192;DHT22;11261;52.456;10.850;2022-09-16T00:58:59;11.60;99.90
22192;DHT22;11261;52.456;10.850;2022-09-16T01:01:31;11.60;99.90
22192;DHT22;11261;52.456;10.850;2022-09-16T01:04:03;11.50;99.90
22192;DHT22;11261;52.456;10.850;2022-09-16T01:06:36;11.50;99.90
22192;DHT22;11261;52.456;10.850;2022-09-16T01:09:05;11.50;99.90
22192;DHT22;11261;52.456;10.850;2022-09-16T01:11:34;11.50;99.90
22192;DHT22;11261;52.456;10.850;2022-09-16T01:14:03;11.50;99.90
22192;DHT22;11261;52.456;10.850;2022-09-16T01:16:55;11.50;99.90
22192;DHT22;11261;52.456;10.850;2022-09-16T01:19:41;11.50;99.90
22192;DHT22;11261;52.456;10.850;2022-09-16T01:22:25;11.50;99.90
22192;DHT22;11261;52.456;10.850;2022-09-16T01:25:06;11.50;99.90
22192;DHT22;11261;52.456;10.850;2022-09-16T01:28:07;11.40;99.90
22192;DHT22;11261;52.456;10.850;2022-09-16T01:30:52;11.40;99.90
22192;DHT22;11261;52.456;10.850;2022-09-16T01:33:32;11.50;99.90
22192;DHT22;11261;52.456;10.850;2022-09-16T01:36:19;11.40;99.90
22192;DHT22;11261;52.456;10.850;2022-09-16T01:39:06;11.40;99.90
22192;DHT22;11261;52.456;10.850;2022-09-16T01:41:44;11.40;99.90
22192;DHT22;11261;52.456;10.850;2022-09-16T01:44:20;11.40;99.90
22192;DHT22;11261;52.456;10.850;2022-09-16T01:46:59;11.50;99.90
22192;DHT22;11261;52.456;10.850;2022-09-16T01:49:38;11.50;99.90
22192;DHT22;11261;52.456;10.850;2022-09-16T01:52:19;11.50;99.90
22192;DHT22;11261;52.456;10.850;2022-09-16T01:54:54;11.50;99.90
22192;DHT22;11261;52.456;10.850;2022-09-16T01:57:29;11.50;99.90
22192;DHT22;11261;52.456;10.850;2022-09-16T02:00:02;11.50;99.90
22192;DHT22;11261;52.456;10.850;2022-09-16T02:02:38;11.50;99.90
22192;DHT22;11261;52.456;10.850;2022-09-16T02:05:11;11.50;99.90
22192;DHT22;11261;52.456;10.850;2022-09-16T02:07:46;11.60;99.90
22192;DHT22;11261;52.456;10.850;2022-09-16T02:10:21;11.60;99.90
22192;DHT22;11261;52.456;10.850;2022-09-16T02:12:52;11.50;99.90
22192;DHT22;11261;52.456;10.850;2022-09-16T02:15:23;11.50;99.90
22192;DHT22;11261;52.456;10.850;2022-09-16T02:17:58;11.50;99.90
22192;DHT22;11261;52.456;10.850;2022-09-16T02:20:29;11.50;99.90
22192;DHT22;11261;52.456;10.850;2022-09-16T02:23:02;11.50;99.90
22192;DHT22;11261;52.456;10.850;2022-09-16T02:25:34;11.50;99.90
22192;DHT22;11261;52.456;10.850;2022-09-16T02:28:06;11.50;99.90
22192;DHT22;11261;52.456;10.850;2022-09-16T02:30:42;11.50;99.90
22192;DHT22;11261;52.456;10.850;2022-09-16T02:33:15;11.50;99.90
22192;DHT22;11261;52.456;10.850;2022-09-16T02:35:46;11.50;99.90
22192;DHT22;11261;52.456;10.850;2022-09-16T02:38:18;11.50;99.90
22192;DHT22;11261;52.456;10.850;2022-09-16T02:40:51;11.50;99.90
22192;DHT22;11261;52.456;10.850;2022-09-16T02:43:21;11.40;99.90
22192;DHT22;11261;52.456;10.850;2022-09-16T02:45:53;11.40;99.90
22192;DHT22;11261;52.456;10.850;2022-09-16T02:48:31;11.40;99.90
22192;DHT22;11261;52.456;10.850;2022-09-16T02:51:09;11.40;99.90
22192;DHT22;11261;52.456;10.850;2022-09-16T02:53:44;11.40;99.90
22192;DHT22;11261;52.456;10.850;2022-09-16T02:56:19;11.30;99.90
22192;DHT22;11261;52.456;10.850;2022-09-16T02:58:49;11.30;99.90
22192;DHT22;11261;52.456;10.850;2022-09-16T03:01:18;11.30;99.90
22192;DHT22;11261;52.456;10.850;2022-09-16T03:03:49;11.30;99.90
22192;DHT22;11261;52.456;10.850;2022-09-16T03:06:19;11.30;99.90
22192;DHT22;11261;52.456;10.850;2022-09-16T03:08:49;11.20;99.90
22192;DHT22;11261;52.456;10.850;2022-09-16T03:11:42;11.10;99.90
22192;DHT22;11261;52.456;10.850;2022-09-16T03:14:24;11.10;99.90
22192;DHT22;11261;52.456;10.850;2022-09-16T03:17:04;11.10;99.90
22192;DHT22;11261;52.456;10.850;2022-09-16T03:19:43;11.10;99.90
22192;DHT22;11261;52.456;10.850;2022-09-16T03:22:17;11.10;99.90
22192;DHT22;11261;52.456;10.850;2022-09-16T03:24:57;11.10;99.90
22192;DHT22;11261;52.456;10.850;2022-09-16T03:27:29;11.00;99.90
22192;DHT22;11261;52.456;10.850;2022-09-16T03:30:03;11.00;99.90
22192;DHT22;11261;52.456;10.850;2022-09-16T03:32:33;11.00;99.90
22192;DHT22;11261;52.456;10.850;2022-09-16T03:35:08;11.00;99.90
22192;DHT22;11261;52.456;10.850;2022-09-16T03:37:40;10.90;99.90
22192;DHT22;11261;52.456;10.850;2022-09-16T03:40:12;10.90;99.90
22192;DHT22;11261;52.456;10.850;2022-09-16T03:42:42;10.90;99.90
22192;DHT22;11261;52.456;10.850;2022-09-16T03:45:15;10.90;99.90
22192;DHT22;11261;52.456;10.850;2022-09-16T03:47:43;10.90;99.90
22192;DHT22;11261;52.456;10.850;2022-09-16T03:50:15;10.90;99.90
22192;DHT22;11261;52.456;10.850;2022-09-16T03:52:43;10.90;99.90
22192;DHT22;11261;52.456;10.850;2022-09-16T03:55:11;10.90;99.90
22192;DHT22;11261;52.456;10.850;2022-09-16T03:57:41;10.90;99.90
22192;DHT22;11261;52.456;10.850;2022-09-16T04:00:10;10.90;99.90
22192;DHT22;11261;52.456;10.850;2022-09-16T04:02:39;10.90;99.90
22192;DHT22;11261;52.456;10.850;2022-09-16T04:05:08;10.90;99.90
22192;DHT22;11261;52.456;10.850;2022-09-16T04:07:37;10.90;99.90
22192;DHT22;11261;52.456;10.850;2022-09-16T04:10:06;11.00;99.90
22192;DHT22;11261;52.456;10.850;2022-09-16T04:12:37;11.00;99.90
22192;DHT22;11261;52.456;10.850;2022-09-16T04:15:06;11.00;99.90
22192;DHT22;11261;52.456;10.850;2022-09-16T04:17:34;11.00;99.90
22192;DHT22;11261;52.456;10.850;2022-09-16T04:20:03;11.10;99.90
22192;DHT22;11261;52.456;10.850;2022-09-16T04:22:31;11.00;99.90
22192;DHT22;11261;52.456;10.850;2022-09-16T04:25:01;11.00;99.90
22192;DHT22;11261;52.456;10.850;2022-09-16T04:27:30;11.10;99.90
22192;DHT22;11261;52.456;10.850;2022-09-16T04:29:58;11.10;99.90
22192;DHT22;11261;52.456;10.850;2022-09-16T04:32:26;11.10;99.90
22192;DHT22;11261;52.456;10.850;2022-09-16T04:34:55;11.10;99.90
22192;DHT22;11261;52.456;10.850;2022-09-16T04:37:23;11.00;99.90
22192;DHT22;11261;52.456;10.850;2022-09-16T04:39:51;11.00;99.90
22192;DHT22;11261;52.456;10.850;2022-09-16T04:42:21;11.00;99.90
22192;DHT22;11261;52.456;10.850;2022-09-16T04:44:49;10.90;99.90
22192;DHT22;11261;52.456;10.850;2022-09-16T04:47:17;10.90;99.90
22192;DHT22;11261;52.456;10.850;2022-09-16T04:49:45;10.90;99.90
22192;DHT22;11261;52.456;10.850;2022-09-16T04:52:13;10.90;99.90
22192;DHT22;11261;52.456;10.850;2022-09-16T04:54:41;10.90;99.90
22192;DHT22;11261;52.456;10.850;2022-09-16T04:57:09;10.90;99.90
22192;DHT22;11261;52.456;10.850;2022-09-16T04:59:39;10.90;99.90
22192;DHT22;11261;52.456;10.850;2022-09-16T05:02:07;10.80;99.90
22192;DHT22;11261;52.456;10.850;2022-09-16T05:04:35;10.80;99.90
22192;DHT22;11261;52.456;10.850;2022-09-16T05:07:03;10.80;99.90
22192;DHT22;11261;52.456;10.850;2022-09-16T05:09:31;10.80;99.90
22192;DHT22;11261;52.456;10.850;2022-09-16T05:12:00;10.90;99.90
22192;DHT22;11261;52.456;10.850;2022-09-16T05:14:28;10.90;99.90
22192;DHT22;11261;52.456;10.850;2022-09-16T05:16:58;11.00;99.90
22192;DHT22;11261;52.456;10.850;2022-09-16T05:19:27;10.90;99.90
22192;DHT22;11261;52.456;10.850;2022-09-16T05:21:55;10.90;99.90
22192;DHT22;11261;52.456;10.850;2022-09-16T05:24:23;10.90;99.90
22192;DHT22;11261;52.456;10.850;2022-09-16T05:26:52;11.10;99.90
22192;DHT22;11261;52.456;10.850;2022-09-16T05:29:20;11.10;99.90
22192;DHT22;11261;52.456;10.850;2022-09-16T05:31:48;11.10;99.90
22192;DHT22;11261;52.456;10.850;2022-09-16T05:34:19;11.10;99.90
22192;DHT22;11261;52.456;10.850;2022-09-16T05:36:49;11.20;99.90
22192;DHT22;11261;52.456;10.850;2022-09-16T05:39:20;11.60;99.90
22192;DHT22;11261;52.456;10.850;2022-09-16T05:41:53;11.70;99.90
22192;DHT22;11261;52.456;10.850;2022-09-16T05:44:22;12.00;99.90
22192;DHT22;11261;52.456;10.850;2022-09-16T05:46:50;12.10;99.90
22192;DHT22;11261;52.456;10.850;2022-09-16T05:49:20;12.50;99.90
22192;DHT22;11261;52.456;10.850;2022-09-16T05:51:50;12.30;99.90
22192;DHT22;11261;52.456;10.850;2022-09-16T05:54:19;12.50;99.90
22192;DHT22;11261;52.456;10.850;2022-09-16T05:56:50;12.40;99.90
22192;DHT22;11261;52.456;10.850;2022-09-16T05:59:18;12.20;99.90
22192;DHT22;11261;52.456;10.850;2022-09-16T06:01:46;12.20;99.90
22192;DHT22;11261;52.456;10.850;2022-09-16T06:04:15;12.20;99.90
22192;DHT22;11261;52.456;10.850;2022-09-16T06:06:45;12.10;99.90
22192;DHT22;11261;52.456;10.850;2022-09-16T06:09:15;12.10;99.90
22192;DHT22;11261;52.456;10.850;2022-09-16T06:11:44;12.10;99.90
22192;DHT22;11261;52.456;10.850;2022-09-16T06:14:14;12.10;99.90
22192;DHT22;11261;52.456;10.850;2022-09-16T06:16:43;12.20;99.90
22192;DHT22;11261;52.456;10.850;2022-09-16T06:19:12;12.90;99.90
22192;DHT22;11261;52.456;10.850;2022-09-16T06:21:41;13.10;99.90
22192;DHT22;11261;52.456;10.850;2022-09-16T06:24:13;14.10;99.90
22192;DHT22;11261;52.456;10.850;2022-09-16T06:26:43;14.30;99.90
22192;DHT22;11261;52.456;10.850;2022-09-16T06:29:12;14.50;99.90
22192;DHT22;11261;52.456;10.850;2022-09-16T06:31:40;14.00;99.90
22192;DHT22;11261;52.456;10.850;2022-09-16T06:34:13;14.00;99.90
22192;DHT22;11261;52.456;10.850;2022-09-16T06:36:41;14.60;99.90
22192;DHT22;11261;52.456;10.850;2022-09-16T06:39:14;14.40;99.90
22192;DHT22;11261;52.456;10.850;2022-09-16T06:41:43;14.50;99.90
22192;DHT22;11261;52.456;10.850;2022-09-16T06:44:11;14.50;99.90
22192;DHT22;11261;52.456;10.850;2022-09-16T06:46:40;14.80;99.90
22192;DHT22;11261;52.456;10.850;2022-09-16T06:49:08;15.60;99.90
22192;DHT22;11261;52.456;10.850;2022-09-16T06:51:38;16.10;99.90
22192;DHT22;11261;52.456;10.850;2022-09-16T06:54:08;16.20;99.90
22192;DHT22;11261;52.456;10.850;2022-09-16T06:56:39;15.20;99.90
22192;DHT22;11261;52.456;10.850;2022-09-16T06:59:08;14.60;99.90
22192;DHT22;11261;52.456;10.850;2022-09-16T07:01:36;14.70;99.90
22192;DHT22;11261;52.456;10.850;2022-09-16T07:04:07;14.70;99.90
22192;DHT22;11261;52.456;10.850;2022-09-16T07:06:39;15.80;99.90
22192;DHT22;11261;52.456;10.850;2022-09-16T07:09:27;16.50;99.90
22192;DHT22;11261;52.456;10.850;2022-09-16T07:11:57;16.60;99.90
22192;DHT22;11261;52.456;10.850;2022-09-16T07:14:27;16.60;99.90
22192;DHT22;11261;52.456;10.850;2022-09-16T07:16:55;16.70;99.90
22192;DHT22;11261;52.456;10.850;2022-09-16T07:19:23;15.90;99.90
22192;DHT22;11261;52.456;10.850;2022-09-16T07:21:53;15.80;99.90
22192;DHT22;11261;52.456;10.850;2022-09-16T07:24:21;15.70;99.90
22192;DHT22;11261;52.456;10.850;2022-09-16T07:26:49;16.30;99.90
22192;DHT22;11261;52.456;10.850;2022-09-16T07:29:19;17.70;99.90
22192;DHT22;11261;52.456;10.850;2022-09-16T07:31:47;17.90;99.90
22192;DHT22;11261;52.456;10.850;2022-09-16T07:34:16;16.80;99.90
22192;DHT22;11261;52.456;10.850;2022-09-16T07:36:45;17.20;99.90
22192;DHT22;11261;52.456;10.850;2022-09-16T07:39:16;19.30;99.90
22192;DHT22;11261;52.456;10.850;2022-09-16T07:41:45;18.30;99.90
22192;DHT22;11261;52.456;10.850;2022-09-16T07:44:16;17.60;99.90
22192;DHT22;11261;52.456;10.850;2022-09-16T07:46:46;18.50;99.90
22192;DHT22;11261;52.456;10.850;2022-09-16T07:49:17;19.40;99.90
22192;DHT22;11261;52.456;10.850;2022-09-16T07:51:46;18.30;99.90
22192;DHT22;11261;52.456;10.850;2022-09-16T07:54:16;17.00;99.90
22192;DHT22;11261;52.456;10.850;2022-09-16T07:56:44;18.20;99.90
22192;DHT22;11261;52.456;10.850;2022-09-16T07:59:14;18.70;99.90
22192;DHT22;11261;52.456;10.850;2022-09-16T08:01:47;20.10;99.90
22192;DHT22;11261;52.456;10.850;2022-09-16T08:04:16;18.50;99.90
22192;DHT22;11261;52.456;10.850;2022-09-16T08:06:45;17.70;99.90
22192;DHT22;11261;52.456;10.850;2022-09-16T08:09:13;18.00;99.90
22192;DHT22;11261;52.456;10.850;2022-09-16T08:12:03;19.00;99.90
22192;DHT22;11261;52.456;10.850;2022-09-16T08:14:32;19.70;99.90
22192;DHT22;11261;52.456;10.850;2022-09-16T08:17:02;19.30;99.90
22192;DHT22;11261;52.456;10.850;2022-09-16T08:19:30;18.90;99.90
22192;DHT22;11261;52.456;10.850;2022-09-16T08:21:58;18.10;99.90
22192;DHT22;11261;52.456;10.850;2022-09-16T08:24:26;19.30;99.90
22192;DHT22;11261;52.456;10.850;2022-09-16T08:26:55;19.10;99.90
22192;DHT22;11261;52.456;10.850;2022-09-16T08:29:23;18.70;99.90
22192;DHT22;11261;52.456;10.850;2022-09-16T08:31:51;18.60;99.90
22192;DHT22;11261;52.456;10.850;2022-09-16T08:34:21;19.20;99.90
22192;DHT22;11261;52.456;10.850;2022-09-16T08:36:50;17.90;99.90
22192;DHT22;11261;52.456;10.850;2022-09-16T08:39:18;18.40;99.90
22192;DHT22;11261;52.456;10.850;2022-09-16T08:44:56;18.00;99.90
22192;DHT22;11261;52.456;10.850;2022-09-16T08:47:34;18.00;99.90
22192;DHT22;11261;52.456;10.850;2022-09-16T08:50:14;17.90;99.90
22192;DHT22;11261;52.456;10.850;2022-09-16T08:52:44;18.20;99.90
22192;DHT22;11261;52.456;10.850;2022-09-16T08:55:17;17.80;99.90
22192;DHT22;11261;52.456;10.850;2022-09-16T08:57:53;17.70;99.90
22192;DHT22;11261;52.456;10.850;2022-09-16T09:00:21;18.20;99.90
22192;DHT22;11261;52.456;10.850;2022-09-16T09:02:53;17.80;99.90
22192;DHT22;11261;52.456;10.850;2022-09-16T09:05:29;18.10;99.90
22192;DHT22;11261;52.456;10.850;2022-09-16T09:08:22;17.80;99.90
22192;DHT22;11261;52.456;10.850;2022-09-16T09:10:55;17.80;99.90
22192;DHT22;11261;52.456;10.850;2022-09-16T09:13:50;18.20;99.90
22192;DHT22;11261;52.456;10.850;2022-09-16T09:16:30;18.20;99.90
22192;DHT22;11261;52.456;10.850;2022-09-16T09:19:19;17.80;99.90
22192;DHT22;11261;52.456;10.850;2022-09-16T09:21:59;18.00;99.90
22192;DHT22;11261;52.456;10.850;2022-09-16T09:24:39;17.90;99.90
22192;DHT22;11261;52.456;10.850;2022-09-16T09:27:14;18.00;99.90
22192;DHT22;11261;52.456;10.850;2022-09-16T09:29:53;18.30;99.90
22192;DHT22;11261;52.456;10.850;2022-09-16T09:32:30;18.80;99.90
22192;DHT22;11261;52.456;10.850;2022-09-16T09:35:23;18.80;99.90
22192;DHT22;11261;52.456;10.850;2022-09-16T09:41:05;18.30;99.90
22192;DHT22;11261;52.456;10.850;2022-09-16T09:43:40;18.30;99.90
22192;DHT22;11261;52.456;10.850;2022-09-16T09:46:11;18.20;99.90
22192;DHT22;11261;52.456;10.850;2022-09-16T09:48:43;18.10;99.90
22192;DHT22;11261;52.456;10.850;2022-09-16T09:51:20;18.30;99.90
22192;DHT22;11261;52.456;10.850;2022-09-16T09:53:52;18.00;99.90
22192;DHT22;11261;52.456;10.850;2022-09-16T09:56:26;18.40;99.90
22192;DHT22;11261;52.456;10.850;2022-09-16T09:59:02;18.10;99.90
22192;DHT22;11261;52.456;10.850;2022-09-16T10:01:33;18.00;99.90
22192;DHT22;11261;52.456;10.850;2022-09-16T10:04:01;17.70;99.90
22192;DHT22;11261;52.456;10.850;2022-09-16T10:06:33;17.70;99.90
22192;DHT22;11261;52.456;10.850;2022-09-16T10:09:02;17.70;99.90
22192;DHT22;11261;52.456;10.850;2022-09-16T10:11:32;17.70;99.90
22192;DHT22;11261;52.456;10.850;2022-09-16T10:14:01;17.80;99.90
22192;DHT22;11261;52.456;10.850;2022-09-16T10:16:33;18.20;99.90
22192;DHT22;11261;52.456;10.850;2022-09-16T10:19:05;18.10;99.90
22192;DHT22;11261;52.456;10.850;2022-09-16T10:21:42;18.50;99.90
22192;DHT22;11261;52.456;10.850;2022-09-16T10:24:31;18.40;99.90
22192;DHT22;11261;52.456;10.850;2022-09-16T10:27:17;18.80;99.90
22192;DHT22;11261;52.456;10.850;2022-09-16T10:29:47;18.90;99.90
22192;DHT22;11261;52.456;10.850;2022-09-16T10:32:17;19.00;99.90
22192;DHT22;11261;52.456;10.850;2022-09-16T10:34:46;19.00;99.90
22192;DHT22;11261;52.456;10.850;2022-09-16T10:37:16;18.80;99.90
22192;DHT22;11261;52.456;10.850;2022-09-16T10:39:53;18.40;99.90
22192;DHT22;11261;52.456;10.850;2022-09-16T10:42:25;18.70;99.90
22192;DHT22;11261;52.456;10.850;2022-09-16T10:45:13;19.40;99.90
22192;DHT22;11261;52.456;10.850;2022-09-16T10:47:48;19.40;99.90
22192;DHT22;11261;52.456;10.850;2022-09-16T10:50:18;19.20;99.90
22192;DHT22;11261;52.456;10.850;2022-09-16T10:52:47;19.20;99.90
22192;DHT22;11261;52.456;10.850;2022-09-16T10:55:27;19.40;99.90
22192;DHT22;11261;52.456;10.850;2022-09-16T10:58:07;19.40;99.90
22192;DHT22;11261;52.456;10.850;2022-09-16T11:00:44;19.60;99.90
22192;DHT22;11261;52.456;10.850;2022-09-16T11:06:46;19.90;99.90
22192;DHT22;11261;52.456;10.850;2022-09-16T11:09:25;20.30;99.90
22192;DHT22;11261;52.456;10.850;2022-09-16T11:12:25;19.90;99.90
22192;DHT22;11261;52.456;10.850;2022-09-16T11:15:01;19.40;99.90
22192;DHT22;11261;52.456;10.850;2022-09-16T11:17:41;19.30;99.90
22192;DHT22;11261;52.456;10.850;2022-09-16T11:20:35;19.50;99.90
22192;DHT22;11261;52.456;10.850;2022-09-16T11:23:15;19.40;99.90
22192;DHT22;11261;52.456;10.850;2022-09-16T11:25:52;19.50;99.90
22192;DHT22;11261;52.456;10.850;2022-09-16T11:31:47;20.00;99.90
22192;DHT22;11261;52.456;10.850;2022-09-16T11:34:34;20.00;99.90
22192;DHT22;11261;52.456;10.850;2022-09-16T11:37:13;20.50;99.90
22192;DHT22;11261;52.456;10.850;2022-09-16T11:40:00;20.10;99.90
22192;DHT22;11261;52.456;10.850;2022-09-16T11:42:36;20.30;99.90
22192;DHT22;11261;52.456;10.850;2022-09-16T11:45:18;20.10;99.90
22192;DHT22;11261;52.456;10.850;2022-09-16T11:48:01;19.90;99.90
22192;DHT22;11261;52.456;10.850;2022-09-16T11:50:44;20.20;99.90
22192;DHT22;11261;52.456;10.850;2022-09-16T11:56:27;20.60;99.90
22192;DHT22;11261;52.456;10.850;2022-09-16T11:59:01;20.40;99.90
22192;DHT22;11261;52.456;10.850;2022-09-16T12:01:38;19.40;99.90
22192;DHT22;11261;52.456;10.850;2022-09-16T12:04:13;19.40;99.90
22192;DHT22;11261;52.456;10.850;2022-09-16T12:06:53;19.40;99.90
22192;DHT22;11261;52.456;10.850;2022-09-16T12:09:35;19.70;99.90
22192;DHT22;11261;52.456;10.850;2022-09-16T12:12:09;19.80;99.90
22192;DHT22;11261;52.456;10.850;2022-09-16T12:14:41;19.80;99.90
22192;DHT22;11261;52.456;10.850;2022-09-16T12:17:15;20.00;99.90
22192;DHT22;11261;52.456;10.850;2022-09-16T12:19:50;20.00;99.90
22192;DHT22;11261;52.456;10.850;2022-09-16T12:22:21;19.90;99.90
22192;DHT22;11261;52.456;10.850;2022-09-16T12:24:56;20.00;99.90
22192;DHT22;11261;52.456;10.850;2022-09-16T12:27:36;20.00;99.90
22192;DHT22;11261;52.456;10.850;2022-09-16T12:30:14;20.00;99.90
22192;DHT22;11261;52.456;10.850;2022-09-16T12:32:53;20.00;99.90
22192;DHT22;11261;52.456;10.850;2022-09-16T12:35:28;20.00;99.90
22192;DHT22;11261;52.456;10.850;2022-09-16T12:37:58;20.20;99.90
22192;DHT22;11261;52.456;10.850;2022-09-16T12:40:29;20.30;99.90
22192;DHT22;11261;52.456;10.850;2022-09-16T12:46:24;20.50;99.90
22192;DHT22;11261;52.456;10.850;2022-09-16T12:49:24;20.40;99.90
22192;DHT22;11261;52.456;10.850;2022-09-16T12:52:15;20.10;99.90
22192;DHT22;11261;52.456;10.850;2022-09-16T12:58:05;19.40;99.90
22192;DHT22;11261;52.456;10.850;2022-09-16T13:00:39;19.90;99.90
22192;DHT22;11261;52.456;10.850;2022-09-16T13:03:13;20.30;99.90
22192;DHT22;11261;52.456;10.850;2022-09-16T13:05:46;20.00;99.90
22192;DHT22;11261;52.456;10.850;2022-09-16T13:08:21;19.70;99.40
22192;DHT22;11261;52.456;10.850;2022-09-16T13:10:55;19.70;99.90
22192;DHT22;11261;52.456;10.850;2022-09-16T13:13:47;19.40;99.90
22192;DHT22;11261;52.456;10.850;2022-09-16T13:16:27;19.30;99.60
22192;DHT22;11261;52.456;10.850;2022-09-16T13:19:31;19.90;99.90
22192;DHT22;11261;52.456;10.850;2022-09-16T13:22:16;19.70;99.90
22192;DHT22;11261;52.456;10.850;2022-09-16T13:24:49;19.90;99.90
22192;DHT22;11261;52.456;10.850;2022-09-16T13:27:29;19.80;99.50
22192;DHT22;11261;52.456;10.850;2022-09-16T13:30:15;20.10;98.20
22192;DHT22;11261;52.456;10.850;2022-09-16T13:32:58;19.70;98.90
22192;DHT22;11261;52.456;10.850;2022-09-16T13:35:37;19.30;99.90
22192;DHT22;11261;52.456;10.850;2022-09-16T13:38:24;19.10;99.90
22192;DHT22;11261;52.456;10.850;2022-09-16T13:41:04;18.50;99.90
22192;DHT22;11261;52.456;10.850;2022-09-16T13:43:34;18.20;99.90
22192;DHT22;11261;52.456;10.850;2022-09-16T13:46:09;18.20;99.90
22192;DHT22;11261;52.456;10.850;2022-09-16T13:48:44;18.20;99.90
22192;DHT22;11261;52.456;10.850;2022-09-16T13:51:16;18.20;99.90
22192;DHT22;11261;52.456;10.850;2022-09-16T13:53:46;18.10;99.90
22192;DHT22;11261;52.456;10.850;2022-09-16T13:56:41;18.00;99.90
22192;DHT22;11261;52.456;10.850;2022-09-16T13:59:25;18.00;99.90
22192;DHT22;11261;52.456;10.850;2022-09-16T14:02:03;18.20;99.90
22192;DHT22;11261;52.456;10.850;2022-09-16T14:04:45;18.40;99.90
22192;DHT22;11261;52.456;10.850;2022-09-16T14:07:29;18.10;99.90
22192;DHT22;11261;52.456;10.850;2022-09-16T14:10:05;18.30;99.90
22192;DHT22;11261;52.456;10.850;2022-09-16T14:12:43;18.40;99.90
22192;DHT22;11261;52.456;10.850;2022-09-16T14:15:18;18.40;99.90
22192;DHT22;11261;52.456;10.850;2022-09-16T14:17:49;18.40;99.90
22192;DHT22;11261;52.456;10.850;2022-09-16T14:20:21;18.60;99.90
22192;DHT22;11261;52.456;10.850;2022-09-16T14:22:59;18.60;99.90
22192;DHT22;11261;52.456;10.850;2022-09-16T14:25:32;18.50;99.90
22192;DHT22;11261;52.456;10.850;2022-09-16T14:28:16;18.60;99.60
22192;DHT22;11261;52.456;10.850;2022-09-16T14:30:47;18.50;99.60
22192;DHT22;11261;52.456;10.850;2022-09-16T14:33:19;18.60;99.90
22192;DHT22;11261;52.456;10.850;2022-09-16T14:35:49;18.90;99.90
22192;DHT22;11261;52.456;10.850;2022-09-16T14:38:20;18.60;99.90
22192;DHT22;11261;52.456;10.850;2022-09-16T14:41:24;18.50;99.90
22192;DHT22;11261;52.456;10.850;2022-09-16T14:44:08;18.50;99.90
22192;DHT22;11261;52.456;10.850;2022-09-16T14:46:41;18.50;99.80
22192;DHT22;11261;52.456;10.850;2022-09-16T14:49:13;18.50;99.90
22192;DHT22;11261;52.456;10.850;2022-09-16T14:51:43;18.80;99.80
22192;DHT22;11261;52.456;10.850;2022-09-16T14:54:18;18.70;99.90
22192;DHT22;11261;52.456;10.850;2022-09-16T14:56:54;18.80;99.90
22192;DHT22;11261;52.456;10.850;2022-09-16T14:59:26;18.60;99.90
22192;DHT22;11261;52.456;10.850;2022-09-16T15:01:58;18.80;99.90
22192;DHT22;11261;52.456;10.850;2022-09-16T15:04:31;18.40;99.30
22192;DHT22;11261;52.456;10.850;2022-09-16T15:07:06;18.30;99.50
22192;DHT22;11261;52.456;10.850;2022-09-16T15:09:44;18.10;99.90
22192;DHT22;11261;52.456;10.850;2022-09-16T15:12:21;18.40;99.90
22192;DHT22;11261;52.456;10.850;2022-09-16T15:14:53;18.10;99.90
22192;DHT22;11261;52.456;10.850;2022-09-16T15:17:53;18.20;99.90
22192;DHT22;11261;52.456;10.850;2022-09-16T15:20:31;18.20;99.90
22192;DHT22;11261;52.456;10.850;2022-09-16T15:23:01;18.10;99.90
22192;DHT22;11261;52.456;10.850;2022-09-16T15:25:30;18.20;99.90
22192;DHT22;11261;52.456;10.850;2022-09-16T15:28:04;18.20;99.90
22192;DHT22;11261;52.456;10.850;2022-09-16T15:30:43;17.90;99.90
22192;DHT22;11261;52.456;10.850;2022-09-16T15:33:25;18.10;99.90
22192;DHT22;11261;52.456;10.850;2022-09-16T15:35:59;18.10;99.90
22192;DHT22;11261;52.456;10.850;2022-09-16T15:38:29;17.70;99.90
22192;DHT22;11261;52.456;10.850;2022-09-16T15:41:02;17.70;99.90
22192;DHT22;11261;52.456;10.850;2022-09-16T15:43:34;17.90;99.90
22192;DHT22;11261;52.456;10.850;2022-09-16T15:46:13;17.60;99.90
22192;DHT22;11261;52.456;10.850;2022-09-16T15:48:45;17.40;99.90
22192;DHT22;11261;52.456;10.850;2022-09-16T15:51:23;17.10;99.90
22192;DHT22;11261;52.456;10.850;2022-09-16T15:54:16;17.00;99.90
22192;DHT22;11261;52.456;10.850;2022-09-16T15:56:55;17.10;99.90
22192;DHT22;11261;52.456;10.850;2022-09-16T15:59:31;17.00;99.90
22192;DHT22;11261;52.456;10.850;2022-09-16T16:02:05;16.90;99.90
22192;DHT22;11261;52.456;10.850;2022-09-16T16:04:45;16.80;99.90
22192;DHT22;11261;52.456;10.850;2022-09-16T16:07:38;16.90;99.90
22192;DHT22;11261;52.456;10.850;2022-09-16T16:10:14;17.00;99.90
22192;DHT22;11261;52.456;10.850;2022-09-16T16:12:43;16.80;99.90
22192;DHT22;11261;52.456;10.850;2022-09-16T16:15:14;16.50;99.90
22192;DHT22;11261;52.456;10.850;2022-09-16T16:17:46;16.80;99.90
22192;DHT22;11261;52.456;10.850;2022-09-16T16:20:16;16.40;99.90